Flight Track Log - Related Links

Times and Time Zones

All times are in EDT time to prevent confusion due to time zone crossing. See the OPT732 flight status page for this flight to view local times or setup timezone preferences in your user account.

Time Position Orientation Groundspeed Altitude Reporting Facility
EDT Latitude Longitude Course Direction KTS MPH feet Rate Location/Type
Sun 09:56:44 AM 40.7333 -73.8167 237° Southwest 211 243 3,000  Level New TRACON
Sun 09:57:44 AM 40.7667 -73.8167 360° North 214 246 5,000 1,950 Climbing New TRACON
Sun 09:58:44 AM 40.7833 -73.9000 285° West 246 283 6,900 1,895 Climbing New TRACON
Sun 09:59:38 AM 40.7833 -73.9833 270° West 248 285 8,600 2,842 Climbing New TRACON
Sun 10:00:38 AM 40.7833 -74.0833 270° West 257 296 12,300 2,800 Climbing New TRACON
Sun 10:01:38 AM 40.7667 -74.1667 255° West 271 312 14,200 1,350 Climbing New TRACON
Sun 10:02:00 AM 40.5032 -74.6603 237° Southwest  Level FlightAware
Sun 10:02:38 AM 40.7167 -74.2667 237° Southwest 347 399 15,000  Level New TRACON
Sun 10:04:53 AM 40.6178 -74.4864 239° Southwest 351 404 17,600 1,538 Climbing New Center
Sun 10:05:53 AM 40.5561 -74.5925 233° Southwest 365 420 20,000 2,479 Climbing New Center
Sun 10:06:54 AM 40.4942 -74.7008 233° Southwest 375 432 22,600 2,479 Climbing New Center
Sun 10:07:54 AM 40.4256 -74.8197 233° Southwest 394 453 25,000 2,319 Climbing New Center
Sun 10:08:53 AM 40.3525 -74.9433 232° Southwest 411 473 27,200 2,182 Climbing New Center
Sun 10:09:55 AM 40.2789 -75.0722 233° Southwest 435 501 29,400 2,439 Climbing New Center
Sun 10:10:56 AM 40.2011 -75.2033 232° Southwest 450 518 32,200 2,441 Climbing New Center
Sun 10:11:53 AM 40.1253 -75.3314 232° Southwest 455 524 34,200 1,692 Climbing New Center
Sun 10:12:53 AM 40.0428 -75.4697 232° Southwest 470 541 35,500 1,350 Climbing New Center
Sun 10:13:53 AM 39.9600 -75.6078 232° Southwest 482 555 36,900 1,537 Climbing New Center
Sun 10:14:54 AM 39.8753 -75.7453 231° Southwest 489 563 38,600 1,820 Climbing New Center
Sun 10:15:55 AM 39.7925 -75.8772 231° Southwest 489 563 40,600 1,770 Climbing New Center
Sun 10:16:56 AM 39.7117 -76.0064 231° Southwest 479 551 42,200 1,261 Climbing New Center
Sun 10:18:13 AM 39.6058 -76.1761 231° Southwest 468 539 43,500 783 Climbing Washington Center
Sun 10:19:14 AM 39.5239 -76.3044 230° Southwest 463 533 44,000 694 Climbing Washington Center
Sun 10:20:14 AM 39.4419 -76.4328 230° Southwest 470 541 44,900 850 Climbing Washington Center
Sun 10:21:14 AM 39.3428 -76.5711 227° Southwest 475 547 45,700 744 Climbing Washington Center
Sun 10:22:15 AM 39.2647 -76.6986 232° Southwest 475 547 46,400 605 Climbing Washington Center
Sun 10:23:13 AM 39.1842 -76.8233 230° Southwest 469 540 46,900 303 Climbing Washington Center
Sun 10:24:14 AM 39.1039 -76.9478 230° Southwest 464 534 47,000 50 Climbing Washington Center
Sun 10:25:14 AM 39.0189 -77.0664 227° Southwest 464 534 47,000  Level Washington Center
Sun 10:26:15 AM 38.9217 -77.1711 220° Southwest 457 526 47,000  Level Washington Center
Sun 10:27:15 AM 38.8244 -77.2783 221° Southwest 457 526 47,000  Level Washington Center
Sun 10:28:16 AM 38.7269 -77.3878 221° Southwest 463 533 47,000  Level Washington Center
Sun 10:29:14 AM 38.6419 -77.4867 222° Southwest 463 533 47,000  Level Washington Center
Sun 10:30:14 AM 38.5525 -77.6067 226° Southwest 463 533 47,000  Level Washington Center
Sun 10:31:15 AM 38.4631 -77.7236 226° Southwest 463 533 47,000  Level Washington Center
Sun 10:32:15 AM 38.3733 -77.8403 226° Southwest 463 533 47,000  Level Washington Center
Sun 10:33:13 AM 38.2836 -77.9539 225° Southwest 463 533 47,000  Level Washington Center
Sun 10:34:13 AM 38.1914 -78.0697 225° Southwest 463 533 47,000  Level Washington Center
Sun 10:35:13 AM 38.1014 -78.1856 225° Southwest 463 533 47,000  Level Washington Center
Sun 10:36:14 AM 38.0111 -78.3036 226° Southwest 463 533 47,000  Level Washington Center
Sun 10:37:14 AM 37.9231 -78.4136 225° Southwest 463 533 47,000  Level Washington Center
Sun 10:38:15 AM 37.8308 -78.5286 225° Southwest 463 533 47,000 -1,240 Level Washington Center
Sun 10:39:15 AM 37.7383 -78.6406 224° Southwest 463 533 44,500 -3,559 Descending Washington Center
Sun 10:40:13 AM 37.6411 -78.7653 225° Southwest 469 540 40,000 -3,600 Descending Washington Center
Sun 10:41:15 AM 37.5550 -78.8717 224° Southwest 455 524 37,300 -2,750 Descending Washington Center
Sun 10:42:13 AM 37.4664 -78.9778 224° Southwest 443 510 34,500 -1,678 Descending Washington Center
Sun 10:43:13 AM 37.3778 -79.0836 224° Southwest 443 510 34,000 -250 Descending Washington Center
Sun 10:44:13 AM 37.2825 -79.1992 224° Southwest 458 527 34,000  Level Washington Center
Sun 10:45:14 AM 37.1911 -79.3281 228° Southwest 480 552 34,000 -149 Level Washington Center
Sun 10:46:14 AM 37.1122 -79.4439 230° Southwest 498 573 33,700 -1,123 Descending Washington Center
Sun 10:48:21 AM 36.9269 -79.7181 230° Southwest 482 555 30,500 -1,636 Descending Atlanta Center
Sun 10:49:21 AM 36.8514 -79.8261 229° Southwest 473 544 28,600 -1,250 Descending Atlanta Center
Sun 10:50:21 AM 36.7739 -79.9417 230° Southwest 459 528 28,000 -300 Descending Atlanta Center
Sun 10:51:21 AM 36.6964 -80.0542 229° Southwest 448 516 28,000  Level Atlanta Center
Sun 10:52:21 AM 36.6206 -80.1642 229° Southwest 437 503 28,000 -100 Level Atlanta Center
Sun 10:53:21 AM 36.5303 -80.2744 224° Southwest 424 488 27,800 -650 Descending Atlanta Center
Sun 10:54:21 AM 36.4211 -80.3208 199° South 411 473 26,700 -1,150 Descending Atlanta Center
Sun 10:55:21 AM 36.3078 -80.3622 196° South 412 474 25,500 -1,200 Descending Atlanta Center
Sun 10:56:21 AM 36.1942 -80.4008 195° South 425 489 24,300 -1,150 Descending Atlanta Center
Sun 10:57:21 AM 36.0931 -80.4336 195° South 425 489 23,200 -1,300 Descending Atlanta Center
Sun 10:58:21 AM 35.9897 -80.4689 195° South 411 473 21,700 -1,500 Descending Atlanta Center
Sun 10:59:21 AM 35.8908 -80.5092 198° South 388 447 20,200 -850 Descending Atlanta Center
Sun 11:00:21 AM 35.7872 -80.5419 194° South 383 441 20,000 -316 Descending Atlanta Center
Sun 11:00:56 AM 35.7325 -80.5953 218° Southwest 381 438 19,700 -700 Descending Atlanta Center
Sun 11:01:21 AM 35.7106 -80.6294 232° Southwest 370 426 19,300 -988 Descending Atlanta Center
Sun 11:02:21 AM 35.6592 -80.7339 239° Southwest 358 412 18,300 -1,150 Descending Atlanta Center
Sun 11:03:21 AM 35.6056 -80.8358 237° Southwest 363 418 17,000 -1,600 Descending Atlanta Center
Sun 11:04:21 AM 35.5458 -80.9503 237° Southwest 368 423 15,100 -1,350 Descending Atlanta Center
Sun 11:05:21 AM 35.4961 -81.0517 239° Southwest 368 423 14,300 -1,050 Descending Atlanta Center
Sun 11:06:21 AM 35.4464 -81.1428 236° Southwest 350 403 13,000 -650 Descending Atlanta Center
Sun 11:07:21 AM 35.4044 -81.2283 239° Southwest 314 361 13,000 -100 Level Atlanta Center
Sun 11:08:21 AM 35.3564 -81.3164 236° Southwest 309 356 12,800 -395 Descending Atlanta Center
Sun 11:08:37 AM 35.3483 -81.3347 242° Southwest 303 349 12,500 -1,241 Descending Atlanta Center
Sun 11:09:19 AM 35.3183 -81.3917 237° Southwest 292 336 11,600 -1,269 Descending Atlanta Center
Sun 11:10:21 AM 35.2783 -81.4667 237° Southwest 293 337 10,300 -1,258 Descending Atlanta Center
Sun 11:12:00 AM 35.1746 -81.6424 234° Southwest  Level FlightAware
Sun 11:19:00 AM 34.8833 -82.2167 231° Southwest  Level FlightAware
Sun 11:20:00 AM 34.8957 -82.2189 231° Southwest  Level Estimated
Sun 11:21:00 AM 34.8957 -82.2189 231° Southwest  Level Estimated
Sun 11:22:00 AM 34.8957 -82.2189 231° Southwest  Level Estimated
Sun 11:23:00 AM 34.8957 -82.2189 231° Southwest  Level Estimated
Sun 11:24:00 AM 34.8957 -82.2189 231° Southwest  Level Estimated
Sun 11:25:00 AM 34.8957 -82.2189 231° Southwest  Level Estimated
Sun 11:26:00 AM 34.8957 -82.2189 231° Southwest  Level Estimated
Sun 11:27:00 AM 34.8957 -82.2189 231° Southwest  Level Estimated

Login

Don't have an account? Register now (free) for customized features, flight alerts, and more!